Terminal Aerodrome Forecast
Issued by NWS

Home | Current Version | Previous Version | Text Only | Print | Product List | Glossary On
Versions: 1 2 3 4 5 6 7 8 9 10 11 12 13 14 15 16 17 18 19
000
FTUS45 KSLC 201125
TAFBCE
TAF
KBCE 201125Z 2012/2112 27006KT P6SM SCT080 BKN160
     FM201600 14011KT P6SM VCSH SCT070 BKN120
     FM201900 20010G16KT P6SM -SHRA VCTS SCT050CB BKN100
     FM210100 27007KT P6SM VCSH SCT060 BKN100=

USA.gov is the U.S. government's official web portal to all federal, state and local government web resources and services.